createdAt,value
2019-05-26T16:55:07.053Z,47.30
2019-05-26T16:57:33.915Z,51.50
2019-05-26T17:00:00.787Z,46.10
2019-05-26T17:02:27.905Z,45.70
2019-05-26T17:04:54.869Z,45.10
2019-05-26T17:07:21.828Z,53.20
2019-05-26T17:09:48.720Z,53.50
2019-05-26T17:12:15.584Z,44.40
2019-05-26T17:14:42.444Z,46.00
2019-05-26T17:17:14.708Z,46.10
2019-05-26T17:19:38.255Z,51.40
2019-05-26T17:22:05.329Z,50.40
2019-05-26T17:24:32.219Z,57.60
2019-05-26T17:26:59.181Z,48.00
2019-05-26T17:29:26.393Z,51.40
2019-05-26T17:31:53.305Z,50.50
2019-05-26T17:34:20.167Z,46.40
2019-05-26T17:36:47.238Z,49.80
2019-05-26T17:39:14.204Z,47.60
2019-05-26T17:41:41.076Z,48.30
2019-05-26T17:44:07.928Z,48.50
2019-05-26T17:46:35.104Z,49.30
2019-05-26T17:49:03.026Z,50.30
2019-05-26T17:51:29.880Z,47.60
2019-05-26T17:53:57.052Z,48.60
2019-05-26T17:56:24.265Z,47.80
2019-05-26T17:58:51.124Z,51.20
2019-05-26T18:01:17.984Z,51.10
2019-05-26T18:03:44.945Z,50.60
2019-05-26T18:06:11.821Z,50.60
2019-05-26T18:08:38.672Z,50.00
2019-05-26T18:11:05.539Z,50.70
2019-05-26T18:13:32.417Z,53.00
2019-05-26T18:15:59.283Z,51.00
2019-05-26T18:18:26.537Z,53.50
2019-05-26T18:20:53.511Z,53.80
2019-05-26T18:23:20.378Z,53.00
2019-05-26T18:25:47.351Z,51.10
2019-05-26T18:28:14.331Z,51.30
2019-05-26T18:30:41.208Z,52.30
2019-05-26T18:33:08.177Z,50.80
2019-05-26T18:35:35.038Z,51.20
2019-05-26T18:38:01.908Z,51.00
2019-05-26T18:40:28.858Z,52.40
2019-05-26T18:42:55.839Z,54.20
2019-05-26T18:45:22.835Z,52.90
2019-05-26T18:48:02.616Z,52.60
2019-05-26T18:50:18.670Z,53.00
2019-05-26T18:52:45.620Z,53.80
2019-05-26T18:55:12.780Z,52.70
2019-05-26T18:57:39.647Z,55.60
2019-05-26T19:00:07.514Z,56.60
2019-05-26T19:02:34.496Z,54.30
2019-05-26T19:05:01.595Z,54.20
2019-05-26T19:07:28.461Z,53.80
2019-05-26T19:09:55.344Z,56.70
2019-05-26T19:12:22.319Z,56.00
2019-05-26T19:14:49.285Z,59.70
2019-05-26T19:17:16.620Z,59.50
2019-05-26T19:19:43.488Z,54.90
2019-05-26T19:22:10.712Z,56.00
2019-05-26T19:24:37.591Z,57.60
2019-05-26T19:27:04.472Z,55.40
2019-05-26T19:29:31.344Z,54.60
2019-05-26T19:31:58.222Z,54.30
2019-05-26T19:34:25.107Z,56.50
2019-05-26T19:36:51.951Z,58.70
2019-05-26T19:39:18.939Z,54.70
2019-05-26T19:41:45.797Z,57.70
2019-05-26T19:44:12.675Z,55.30
2019-05-26T19:46:39.632Z,56.00
2019-05-26T19:49:06.509Z,56.50
2019-05-26T19:51:33.697Z,54.90
2019-05-26T19:54:00.696Z,58.60
2019-05-26T19:56:27.781Z,59.90
2019-05-26T19:58:54.641Z,56.30
2019-05-26T20:01:21.567Z,58.30
2019-05-26T20:03:48.741Z,55.50
2019-05-26T20:06:15.646Z,56.00
2019-05-26T20:08:42.730Z,56.10
2019-05-26T20:11:09.961Z,57.90
2019-05-26T20:18:31.132Z,57.00
2019-05-26T20:20:57.995Z,57.30
2019-05-26T20:23:25.252Z,56.10
2019-05-26T20:25:52.116Z,56.10
2019-05-26T20:28:19.072Z,56.30
2019-05-26T20:30:45.949Z,56.80
2019-05-26T20:33:12.824Z,59.80
2019-05-26T20:35:39.732Z,57.00
2019-05-26T20:38:06.625Z,58.00
2019-05-26T20:40:33.511Z,57.20
2019-05-26T20:43:00.480Z,60.80
2019-05-26T20:45:27.484Z,60.20
2019-05-26T20:47:54.432Z,58.60
2019-05-26T20:50:29.013Z,61.30
2019-05-26T20:52:50.583Z,62.00
2019-05-26T20:55:17.700Z,59.90
2019-05-26T20:57:45.004Z,59.90
2019-05-26T21:00:13.512Z,62.70
2019-05-26T21:02:41.076Z,62.90
2019-05-26T21:05:08.540Z,63.20
2019-05-26T21:07:35.592Z,65.70
2019-05-26T21:10:03.829Z,64.70
2019-05-26T21:12:30.715Z,66.80
2019-05-26T21:15:00.828Z,67.50
2019-05-26T21:17:26.748Z,65.70
2019-05-26T21:19:53.956Z,63.20
2019-05-26T21:22:20.931Z,64.40
2019-05-26T21:24:47.796Z,66.10
2019-05-26T21:27:14.659Z,67.60
2019-05-26T21:29:41.548Z,67.60
2019-05-26T21:32:08.409Z,68.10
2019-05-26T21:34:35.272Z,67.90
2019-05-26T21:37:02.670Z,68.00
2019-05-26T21:39:29.544Z,68.10
2019-05-26T21:41:56.687Z,68.10
2019-05-26T21:44:23.569Z,68.40
2019-05-26T21:46:50.447Z,70.50
2019-05-26T21:49:17.615Z,69.50
2019-05-26T21:51:45.014Z,69.50
2019-05-26T21:54:12.062Z,69.20
2019-05-26T21:56:39.035Z,71.20
2019-05-26T21:59:05.920Z,69.70
2019-05-26T22:01:33.021Z,70.80
2019-05-26T22:03:59.888Z,71.40
2019-05-26T22:06:27.114Z,71.80
2019-05-26T22:08:53.976Z,72.50
2019-05-26T22:11:20.852Z,72.80
2019-05-26T22:13:47.724Z,72.70
2019-05-26T22:16:15.000Z,74.30
2019-05-26T22:18:41.869Z,74.70
2019-05-26T22:21:08.828Z,74.90
2019-05-26T22:23:36.530Z,75.20
2019-05-26T22:26:03.587Z,74.90
2019-05-26T22:28:30.451Z,74.60
2019-05-26T22:30:57.329Z,75.70
2019-05-26T22:33:24.283Z,75.00
2019-05-26T22:35:51.144Z,75.40
2019-05-26T22:38:18.014Z,75.20
2019-05-26T22:40:44.861Z,75.70
2019-05-26T22:43:11.720Z,75.40
2019-05-26T22:45:38.795Z,73.60
2019-05-26T22:48:05.651Z,74.60
2019-05-26T22:50:33.043Z,76.50
2019-05-26T22:53:00.016Z,75.40
2019-05-26T22:55:26.891Z,74.80
2019-05-26T22:57:53.773Z,74.30
2019-05-26T23:00:21.152Z,74.70
2019-05-26T23:02:48.005Z,74.10
2019-05-26T23:05:14.971Z,73.40
2019-05-26T23:07:41.841Z,70.90
2019-05-26T23:10:10.303Z,73.90
2019-05-26T23:12:37.867Z,73.10
2019-05-26T23:15:05.009Z,73.60
2019-05-26T23:17:31.962Z,72.10
2019-05-26T23:19:58.829Z,71.90
2019-05-26T23:22:25.701Z,73.60
2019-05-26T23:24:52.679Z,72.40
2019-05-26T23:27:19.560Z,74.40
2019-05-26T23:29:46.531Z,74.90
2019-05-26T23:32:13.400Z,70.60
2019-05-26T23:34:40.259Z,72.30
2019-05-26T23:37:07.376Z,71.90
2019-05-26T23:39:34.340Z,73.00
2019-05-26T23:42:01.572Z,72.10
2019-05-26T23:44:28.444Z,74.70
2019-05-26T23:46:55.310Z,74.80
2019-05-26T23:49:24.832Z,76.50
2019-05-26T23:51:52.104Z,75.90
2019-05-26T23:54:19.070Z,76.20
2019-05-26T23:56:46.259Z,77.00
2019-05-26T23:59:13.121Z,76.10
